createdAt,value
2017-07-06T00:00:06.759Z,66.30
2017-07-06T00:02:34.193Z,66.90
2017-07-06T00:05:01.626Z,66.80
2017-07-06T00:07:29.065Z,66.50
2017-07-06T00:09:56.514Z,66.80
2017-07-06T00:12:23.949Z,67.40
2017-07-06T00:14:51.390Z,67.50
2017-07-06T00:17:19.602Z,68.20
2017-07-06T00:19:47.059Z,68.20
2017-07-06T00:22:14.498Z,68.40
2017-07-06T00:24:41.930Z,68.20
2017-07-06T00:27:10.136Z,68.00
2017-07-06T00:29:37.573Z,68.00
2017-07-06T00:32:05.020Z,67.80
2017-07-06T00:34:33.216Z,67.50
2017-07-06T00:37:00.665Z,67.50
2017-07-06T00:39:28.102Z,67.70
2017-07-06T00:41:55.546Z,67.90
2017-07-06T00:44:22.973Z,68.80
2017-07-06T00:46:50.424Z,68.20
2017-07-06T00:49:17.859Z,67.90
2017-07-06T00:51:45.302Z,68.40
2017-07-06T00:54:13.505Z,68.90
2017-07-06T00:56:40.953Z,68.80
2017-07-06T00:59:08.385Z,69.40
2017-07-06T01:01:36.597Z,69.10
2017-07-06T01:04:04.060Z,69.00
2017-07-06T01:06:31.508Z,68.90
2017-07-06T01:08:58.951Z,69.00
2017-07-06T01:11:26.399Z,69.00
2017-07-06T01:13:53.830Z,69.10
2017-07-06T01:16:22.064Z,68.70
2017-07-06T01:18:49.501Z,68.70
2017-07-06T01:21:16.937Z,69.10
2017-07-06T01:23:44.380Z,68.70
2017-07-06T01:26:12.584Z,69.40
2017-07-06T01:28:40.020Z,69.40
2017-07-06T01:31:07.484Z,69.80
2017-07-06T01:33:34.929Z,70.20
2017-07-06T01:36:03.131Z,70.30
2017-07-06T01:38:30.575Z,70.30
2017-07-06T01:40:58.013Z,70.50
2017-07-06T01:43:26.221Z,73.00
2017-07-06T01:45:53.653Z,72.70
2017-07-06T01:48:21.100Z,73.30
2017-07-06T01:50:48.533Z,74.00
2017-07-06T01:53:15.980Z,74.60
2017-07-06T01:55:43.417Z,74.60
2017-07-06T01:58:10.893Z,74.60
2017-07-06T02:00:38.373Z,75.10
2017-07-06T02:03:07.830Z,75.60
2017-07-06T02:05:35.265Z,75.90
2017-07-06T02:08:02.706Z,75.90
2017-07-06T02:10:30.137Z,76.30
2017-07-06T02:12:57.577Z,76.30
2017-07-06T02:15:25.018Z,76.40
2017-07-06T02:17:52.475Z,75.50
2017-07-06T02:20:19.906Z,75.30
2017-07-06T02:22:47.340Z,75.10
2017-07-06T02:25:15.550Z,74.20
2017-07-06T02:27:42.981Z,74.20
2017-07-06T02:30:11.198Z,73.60
2017-07-06T02:32:38.633Z,73.50
2017-07-06T02:35:06.065Z,73.60
2017-07-06T02:37:34.263Z,73.70
2017-07-06T02:40:01.704Z,73.60
2017-07-06T02:42:29.146Z,73.70
2017-07-06T02:44:56.588Z,73.60
2017-07-06T02:47:24.021Z,74.30
2017-07-06T02:49:51.469Z,74.10
2017-07-06T02:52:18.906Z,75.60
2017-07-06T02:54:46.350Z,75.50
2017-07-06T02:57:13.784Z,75.10
2017-07-06T02:59:41.216Z,76.10
2017-07-06T03:02:08.653Z,76.20
2017-07-06T03:04:36.091Z,76.50
2017-07-06T03:07:03.524Z,76.80
2017-07-06T03:09:30.974Z,77.60
2017-07-06T03:11:58.404Z,77.50
2017-07-06T03:14:25.840Z,77.60
2017-07-06T03:16:53.289Z,77.70
2017-07-06T03:19:20.729Z,77.70
2017-07-06T03:21:48.169Z,77.50
2017-07-06T03:24:16.377Z,77.40
2017-07-06T03:26:43.817Z,77.40
2017-07-06T03:29:11.252Z,77.60
2017-07-06T03:31:38.697Z,77.50
2017-07-06T03:34:06.129Z,77.20
2017-07-06T03:36:33.576Z,77.10
2017-07-06T03:39:01.017Z,77.30
2017-07-06T03:41:28.459Z,78.00
2017-07-06T03:43:55.900Z,78.30
2017-07-06T03:46:23.340Z,78.80
2017-07-06T03:48:50.777Z,79.40
2017-07-06T03:51:18.218Z,79.90
2017-07-06T03:53:45.669Z,80.20
2017-07-06T03:56:13.115Z,80.30
2017-07-06T03:58:40.545Z,80.60
2017-07-06T04:01:07.993Z,81.00
2017-07-06T04:03:36.196Z,80.80
2017-07-06T04:06:03.637Z,80.60
2017-07-06T04:08:31.069Z,80.70
2017-07-06T04:10:58.504Z,80.90
2017-07-06T04:13:25.953Z,81.20
2017-07-06T04:15:53.393Z,81.80
2017-07-06T04:18:20.844Z,82.20
2017-07-06T04:20:48.276Z,82.50
2017-07-06T04:23:15.716Z,82.00
2017-07-06T04:25:43.970Z,81.40
2017-07-06T04:28:11.365Z,81.30
2017-07-06T04:30:38.793Z,80.80
2017-07-06T04:33:07.001Z,80.00
2017-07-06T04:35:34.438Z,80.00
2017-07-06T04:38:02.669Z,79.40
2017-07-06T04:40:30.110Z,79.40
2017-07-06T04:42:57.560Z,79.20
2017-07-06T04:45:24.986Z,79.10
2017-07-06T04:47:52.426Z,79.10
2017-07-06T04:50:19.866Z,78.90
2017-07-06T04:52:47.299Z,78.20
2017-07-06T04:55:14.746Z,78.10
2017-07-06T04:57:42.189Z,78.10
2017-07-06T05:00:09.616Z,78.20
2017-07-06T05:02:37.048Z,77.80
2017-07-06T05:05:04.489Z,78.10
2017-07-06T05:07:31.933Z,77.80
2017-07-06T05:09:59.373Z,76.90
2017-07-06T05:12:26.808Z,76.40
2017-07-06T05:14:54.251Z,75.70
2017-07-06T05:17:21.689Z,74.60
2017-07-06T05:19:49.124Z,74.70
2017-07-06T05:22:16.562Z,72.90
2017-07-06T05:24:44.009Z,73.20
2017-07-06T05:27:11.448Z,70.60
2017-07-06T05:29:39.657Z,69.60
2017-07-06T05:32:07.112Z,69.50
2017-07-06T05:34:34.553Z,69.00
2017-07-06T05:37:01.993Z,68.10
2017-07-06T05:39:29.438Z,65.40
2017-07-06T05:41:57.632Z,63.80
2017-07-06T05:44:25.083Z,63.80
2017-07-06T05:46:52.508Z,63.70
2017-07-06T05:49:19.956Z,63.20
2017-07-06T05:51:47.397Z,63.10
2017-07-06T05:54:14.846Z,62.40
2017-07-06T05:56:42.281Z,62.00
2017-07-06T05:59:09.729Z,61.60
2017-07-06T06:01:37.167Z,61.20
2017-07-06T06:04:05.373Z,60.30
2017-07-06T06:06:32.815Z,59.90
2017-07-06T06:09:00.248Z,59.50
2017-07-06T06:11:27.696Z,58.70
2017-07-06T06:13:55.124Z,59.20
2017-07-06T06:16:22.574Z,58.80
2017-07-06T06:18:50.010Z,58.50
2017-07-06T06:21:17.451Z,57.70
2017-07-06T06:23:45.688Z,58.00
2017-07-06T06:26:13.126Z,58.30
2017-07-06T06:28:40.573Z,58.30
2017-07-06T06:31:08.013Z,57.70
2017-07-06T06:33:35.460Z,57.80
2017-07-06T06:36:02.892Z,57.40
2017-07-06T06:38:30.333Z,57.30
2017-07-06T06:40:57.769Z,57.40
2017-07-06T06:43:25.215Z,55.80
2017-07-06T06:45:52.677Z,55.80
2017-07-06T06:48:20.089Z,54.40
2017-07-06T06:50:47.533Z,54.80
2017-07-06T06:53:15.734Z,53.50
2017-07-06T06:55:43.176Z,53.50
2017-07-06T06:58:10.601Z,54.00
2017-07-06T07:00:38.058Z,54.30
2017-07-06T07:03:05.514Z,53.50
2017-07-06T07:05:32.953Z,52.90
2017-07-06T07:08:00.400Z,52.30
2017-07-06T07:10:27.845Z,52.00
2017-07-06T07:12:55.277Z,51.60
2017-07-06T07:15:22.720Z,50.90
2017-07-06T07:17:50.463Z,51.10
2017-07-06T07:20:17.908Z,50.40
2017-07-06T07:22:45.353Z,50.20
2017-07-06T07:25:12.791Z,51.30
2017-07-06T07:27:40.232Z,50.10
2017-07-06T07:30:08.438Z,49.20
2017-07-06T07:32:35.861Z,49.10
2017-07-06T07:35:03.299Z,49.00
2017-07-06T07:37:30.736Z,48.10
2017-07-06T07:39:58.222Z,47.60
2017-07-06T07:42:26.415Z,46.80
2017-07-06T07:44:53.844Z,46.80
2017-07-06T07:47:21.296Z,46.40
2017-07-06T07:49:48.725Z,45.50
2017-07-06T07:52:16.171Z,45.10
2017-07-06T07:54:43.604Z,44.90
2017-07-06T07:57:11.040Z,45.20
2017-07-06T07:59:39.236Z,43.90
2017-07-06T08:02:06.673Z,43.90
2017-07-06T08:04:34.877Z,43.20
2017-07-06T08:07:02.301Z,43.20
2017-07-06T08:09:29.728Z,44.00
2017-07-06T08:11:57.177Z,42.80
2017-07-06T08:14:24.609Z,42.50
2017-07-06T08:16:52.037Z,42.60
2017-07-06T08:19:19.529Z,42.60
2017-07-06T08:21:46.913Z,42.80
2017-07-06T08:24:14.347Z,41.60
2017-07-06T08:26:41.778Z,40.30
2017-07-06T08:29:09.216Z,40.00
2017-07-06T08:31:36.649Z,40.00
2017-07-06T08:34:04.088Z,38.30
2017-07-06T08:36:31.513Z,37.90
2017-07-06T08:38:58.957Z,36.90
2017-07-06T08:41:26.383Z,35.70
2017-07-06T08:43:53.845Z,36.10
2017-07-06T08:46:21.278Z,34.00
2017-07-06T08:48:48.717Z,33.80
2017-07-06T08:51:16.136Z,33.00
2017-07-06T08:53:43.574Z,32.90
2017-07-06T08:56:11.003Z,33.90
2017-07-06T08:58:38.429Z,33.80
2017-07-06T09:01:05.868Z,32.90
2017-07-06T09:03:33.301Z,33.40
2017-07-06T09:06:01.509Z,32.00
2017-07-06T09:08:28.940Z,31.90
2017-07-06T09:10:56.377Z,32.10
2017-07-06T09:13:23.803Z,32.50
2017-07-06T09:15:51.240Z,33.80
2017-07-06T09:18:18.660Z,31.60
2017-07-06T09:20:46.871Z,32.70
2017-07-06T09:23:14.297Z,32.60
2017-07-06T09:25:41.728Z,31.50
2017-07-06T09:28:09.148Z,31.70
2017-07-06T09:30:36.580Z,31.20
2017-07-06T09:33:04.018Z,32.60
2017-07-06T09:35:32.213Z,31.70
2017-07-06T09:37:59.649Z,31.70
2017-07-06T09:40:27.841Z,31.00
2017-07-06T09:42:55.277Z,30.90
2017-07-06T09:45:22.711Z,33.60
2017-07-06T09:47:50.862Z,30.40
2017-07-06T09:50:18.337Z,30.90
2017-07-06T09:52:45.779Z,31.90
2017-07-06T09:55:13.220Z,31.70
2017-07-06T09:57:40.657Z,31.70
2017-07-06T10:00:08.091Z,30.90
2017-07-06T10:02:36.292Z,30.80
2017-07-06T10:05:03.725Z,30.80
2017-07-06T10:07:31.946Z,32.10
2017-07-06T10:09:59.387Z,32.20
2017-07-06T10:12:26.808Z,30.80
2017-07-06T10:14:54.243Z,30.10
2017-07-06T10:17:21.670Z,31.70
2017-07-06T10:19:49.113Z,31.90
2017-07-06T10:22:16.540Z,30.40
2017-07-06T10:24:43.977Z,29.90
2017-07-06T10:27:11.404Z,30.50
2017-07-06T10:29:38.851Z,31.40
2017-07-06T10:32:06.273Z,30.00
2017-07-06T10:34:33.713Z,33.00
2017-07-06T10:37:01.913Z,31.70
2017-07-06T10:39:29.351Z,31.60
2017-07-06T10:41:56.777Z,29.60
2017-07-06T10:44:24.224Z,29.10
2017-07-06T10:46:51.728Z,30.60
2017-07-06T10:49:19.153Z,34.00
2017-07-06T10:51:46.592Z,28.40
2017-07-06T10:54:14.031Z,29.80
2017-07-06T10:56:41.469Z,31.90
2017-07-06T10:59:08.901Z,29.40
2017-07-06T11:01:37.101Z,28.40
2017-07-06T11:04:04.527Z,28.50
2017-07-06T11:06:32.761Z,27.20
2017-07-06T11:09:00.192Z,27.20
2017-07-06T11:11:27.628Z,28.60
2017-07-06T11:13:55.074Z,28.20
2017-07-06T11:16:23.276Z,28.80
2017-07-06T11:18:50.704Z,28.70
2017-07-06T11:21:18.900Z,27.60
2017-07-06T11:23:46.328Z,27.60
2017-07-06T11:26:13.775Z,29.60
2017-07-06T11:28:41.201Z,27.50
2017-07-06T11:31:08.632Z,31.10
2017-07-06T11:33:36.074Z,28.50
2017-07-06T11:36:03.509Z,28.30
2017-07-06T11:38:30.941Z,27.90
2017-07-06T11:40:58.377Z,31.00
2017-07-06T11:43:25.824Z,33.20
2017-07-06T11:45:53.237Z,27.10
2017-07-06T11:48:20.668Z,28.80
2017-07-06T11:50:48.098Z,28.20
2017-07-06T11:53:15.529Z,28.10
2017-07-06T11:55:42.961Z,30.60
2017-07-06T11:58:10.390Z,29.20
2017-07-06T12:00:37.812Z,30.40
2017-07-06T12:03:05.245Z,29.70
2017-07-06T12:05:32.673Z,29.10
2017-07-06T12:08:00.113Z,29.20
2017-07-06T12:10:27.539Z,30.00
2017-07-06T12:12:54.985Z,31.10
2017-07-06T12:15:22.414Z,30.70
2017-07-06T12:17:50.545Z,30.60
2017-07-06T12:20:17.981Z,30.00
2017-07-06T12:22:45.407Z,30.40
2017-07-06T12:25:13.609Z,29.80
2017-07-06T12:27:41.044Z,29.30
2017-07-06T12:30:08.476Z,30.30
2017-07-06T12:32:35.909Z,30.60
2017-07-06T12:35:03.336Z,28.80
2017-07-06T12:37:30.761Z,29.50
2017-07-06T12:39:58.194Z,29.70
2017-07-06T12:42:25.620Z,30.50
2017-07-06T12:44:53.061Z,31.10
2017-07-06T12:47:20.489Z,31.10
2017-07-06T12:49:48.694Z,29.70
2017-07-06T12:52:16.117Z,29.60
2017-07-06T12:54:44.311Z,31.70
2017-07-06T12:57:11.747Z,31.10
2017-07-06T12:59:39.168Z,30.50
2017-07-06T13:02:06.613Z,30.20
2017-07-06T13:04:34.039Z,32.30
2017-07-06T13:07:01.471Z,31.30
2017-07-06T13:09:28.897Z,30.70
2017-07-06T13:11:56.337Z,31.20
2017-07-06T13:14:23.764Z,30.40
2017-07-06T13:16:51.206Z,32.00
2017-07-06T13:19:19.393Z,31.60
2017-07-06T13:21:46.829Z,31.60
2017-07-06T13:24:14.261Z,31.30
2017-07-06T13:26:41.692Z,31.10
2017-07-06T13:29:09.132Z,31.00
2017-07-06T13:31:36.575Z,30.40
2017-07-06T13:34:04.760Z,32.80
2017-07-06T13:36:32.194Z,32.80
2017-07-06T13:39:00.399Z,31.60
2017-07-06T13:41:27.834Z,31.60
2017-07-06T13:43:56.055Z,31.50
2017-07-06T13:46:23.480Z,31.40
2017-07-06T13:48:50.921Z,31.60
2017-07-06T13:51:19.121Z,32.40
2017-07-06T13:53:46.562Z,32.40
2017-07-06T13:56:14.016Z,32.00
2017-07-06T13:58:41.499Z,31.80
2017-07-06T14:01:08.881Z,32.00
2017-07-06T14:03:36.313Z,31.70
2017-07-06T14:06:03.741Z,32.80
2017-07-06T14:08:31.174Z,33.00
2017-07-06T14:10:58.597Z,35.50
2017-07-06T14:13:26.038Z,34.40
2017-07-06T14:15:53.477Z,33.90
2017-07-06T14:18:20.905Z,37.00
2017-07-06T14:20:48.339Z,36.10
2017-07-06T14:23:15.768Z,37.10
2017-07-06T14:25:43.200Z,34.80
2017-07-06T14:28:10.648Z,33.80
2017-07-06T14:30:38.089Z,36.50
2017-07-06T14:33:05.512Z,40.80
2017-07-06T14:35:32.953Z,40.90
2017-07-06T14:38:00.383Z,40.50
2017-07-06T14:40:27.814Z,41.10
2017-07-06T14:42:55.238Z,42.10
2017-07-06T14:45:22.678Z,42.80
2017-07-06T14:47:50.107Z,42.50
2017-07-06T14:50:17.528Z,43.80
2017-07-06T14:52:44.960Z,43.70
2017-07-06T14:55:12.400Z,46.10
2017-07-06T14:57:39.828Z,46.90
2017-07-06T15:00:07.249Z,45.60
2017-07-06T15:02:34.725Z,47.30
2017-07-06T15:05:02.141Z,48.30
2017-07-06T15:07:29.585Z,47.40
2017-07-06T15:09:57.014Z,49.80
2017-07-06T15:12:24.449Z,51.10
2017-07-06T15:14:51.884Z,52.50
2017-07-06T15:17:19.317Z,54.40
2017-07-06T15:19:46.748Z,55.40
2017-07-06T15:22:14.184Z,54.70
2017-07-06T15:24:41.609Z,55.10
2017-07-06T15:27:09.037Z,56.70
2017-07-06T15:29:36.476Z,58.10
2017-07-06T15:32:03.903Z,59.50
2017-07-06T15:34:31.341Z,58.90
2017-07-06T15:36:58.765Z,56.20
2017-07-06T15:39:26.201Z,56.80
2017-07-06T15:41:53.633Z,57.10
2017-07-06T15:44:21.055Z,57.90
2017-07-06T15:46:48.488Z,58.60
2017-07-06T15:49:15.925Z,57.00
2017-07-06T15:51:43.345Z,59.20
2017-07-06T15:54:10.784Z,59.00
2017-07-06T15:56:38.215Z,59.50
2017-07-06T15:59:05.653Z,58.50
2017-07-06T16:01:33.093Z,58.40
2017-07-06T16:04:01.293Z,59.10
2017-07-06T16:06:28.731Z,59.10
2017-07-06T16:08:56.948Z,62.10
2017-07-06T16:11:24.373Z,62.00
2017-07-06T16:13:51.796Z,60.50
2017-07-06T16:16:20.006Z,61.00
2017-07-06T16:18:47.441Z,61.00
2017-07-06T16:21:14.882Z,62.50
2017-07-06T16:23:42.300Z,61.10
2017-07-06T16:26:09.747Z,59.30
2017-07-06T16:28:37.205Z,59.40
2017-07-06T16:31:04.647Z,59.70
2017-07-06T16:33:32.069Z,59.00
2017-07-06T16:36:00.273Z,60.00
2017-07-06T16:38:27.697Z,59.90
2017-07-06T16:40:55.910Z,61.40
2017-07-06T16:43:23.346Z,60.70
2017-07-06T16:45:50.787Z,61.10
2017-07-06T16:48:18.206Z,62.20
2017-07-06T16:50:45.632Z,62.40
2017-07-06T16:53:13.069Z,64.00
2017-07-06T16:55:40.496Z,66.20
2017-07-06T16:58:07.936Z,66.90
2017-07-06T17:00:35.364Z,68.40
2017-07-06T17:03:02.796Z,70.30
2017-07-06T17:05:30.992Z,71.80
2017-07-06T17:07:58.417Z,71.70
2017-07-06T17:10:25.844Z,71.90
2017-07-06T17:12:53.283Z,74.10
2017-07-06T17:15:20.718Z,75.60
2017-07-06T17:17:48.163Z,75.50
2017-07-06T17:20:15.583Z,75.80
2017-07-06T17:22:43.016Z,76.60
2017-07-06T17:25:10.447Z,76.70
2017-07-06T17:27:37.883Z,80.70
2017-07-06T17:30:05.316Z,81.30
2017-07-06T17:32:32.744Z,79.10
2017-07-06T17:35:00.183Z,79.50
2017-07-06T17:37:27.612Z,79.00
2017-07-06T17:39:55.049Z,78.80
2017-07-06T17:42:22.478Z,78.60
2017-07-06T17:44:49.928Z,78.40
2017-07-06T17:47:17.340Z,78.40
2017-07-06T17:49:44.772Z,78.90
2017-07-06T17:52:12.209Z,78.60
2017-07-06T17:54:39.640Z,80.30
2017-07-06T17:57:07.073Z,79.90
2017-07-06T17:59:34.561Z,79.30
2017-07-06T18:02:02.724Z,81.10
2017-07-06T18:04:30.145Z,80.40
2017-07-06T18:06:57.576Z,81.30
2017-07-06T18:09:25.010Z,81.10
2017-07-06T18:11:52.433Z,80.70
2017-07-06T18:14:19.861Z,81.40
2017-07-06T18:16:48.083Z,81.30
2017-07-06T18:19:15.508Z,81.20
2017-07-06T18:21:42.945Z,81.00
2017-07-06T18:24:10.377Z,81.20
2017-07-06T18:26:37.813Z,81.40
2017-07-06T18:29:05.249Z,80.70
2017-07-06T18:31:32.676Z,82.30
2017-07-06T18:34:01.026Z,82.00
2017-07-06T18:36:28.460Z,82.00
2017-07-06T18:38:55.893Z,81.10
2017-07-06T18:41:23.320Z,81.70
2017-07-06T18:43:50.749Z,82.30
2017-07-06T18:46:18.184Z,82.10
2017-07-06T18:48:45.621Z,81.60
2017-07-06T18:51:13.049Z,82.30
2017-07-06T18:53:41.248Z,82.10
2017-07-06T18:56:08.677Z,81.90
2017-07-06T18:58:36.108Z,82.40
2017-07-06T19:01:03.543Z,82.50
2017-07-06T19:03:30.980Z,82.70
2017-07-06T19:05:58.405Z,82.40
2017-07-06T19:08:26.608Z,82.10
2017-07-06T19:10:54.037Z,81.90
2017-07-06T19:13:22.269Z,82.70
2017-07-06T19:15:49.693Z,82.70
2017-07-06T19:18:17.129Z,83.20
2017-07-06T19:20:44.557Z,82.80
2017-07-06T19:23:11.988Z,82.50
2017-07-06T19:25:39.444Z,83.20
2017-07-06T19:28:06.870Z,83.20
2017-07-06T19:30:34.305Z,83.10
2017-07-06T19:33:02.499Z,81.70
2017-07-06T19:35:29.933Z,81.70
2017-07-06T19:37:58.133Z,84.60
2017-07-06T19:40:25.583Z,84.40
2017-07-06T19:42:53.013Z,83.60
2017-07-06T19:45:20.440Z,83.80
2017-07-06T19:47:47.917Z,84.00
2017-07-06T19:50:16.277Z,84.30
2017-07-06T19:52:43.729Z,85.10
2017-07-06T19:55:11.196Z,84.50
2017-07-06T19:57:38.631Z,85.30
2017-07-06T20:00:06.066Z,84.70
2017-07-06T20:02:33.504Z,84.50
2017-07-06T20:05:00.937Z,84.30
2017-07-06T20:07:28.376Z,84.00
2017-07-06T20:09:55.821Z,84.50
2017-07-06T20:12:23.252Z,85.00
2017-07-06T20:14:50.688Z,85.60
2017-07-06T20:17:18.900Z,84.70
2017-07-06T20:19:46.325Z,84.60
2017-07-06T20:22:13.762Z,84.60
2017-07-06T20:24:41.188Z,85.00
2017-07-06T20:27:08.629Z,85.00
2017-07-06T20:29:36.057Z,85.50
2017-07-06T20:32:03.492Z,85.00
2017-07-06T20:34:31.688Z,86.10
2017-07-06T20:36:59.120Z,86.10
2017-07-06T20:39:27.331Z,87.00
2017-07-06T20:41:54.758Z,86.30
2017-07-06T20:44:22.193Z,86.60
2017-07-06T20:46:49.626Z,86.30
2017-07-06T20:49:17.061Z,85.80
2017-07-06T20:51:44.488Z,86.40
2017-07-06T20:54:11.920Z,87.00
2017-07-06T20:56:39.348Z,86.20
2017-07-06T20:59:06.804Z,86.90
2017-07-06T21:01:34.235Z,87.40
2017-07-06T21:04:01.691Z,87.30
2017-07-06T21:06:29.124Z,87.20
2017-07-06T21:08:57.353Z,87.30
2017-07-06T21:11:24.768Z,87.20
2017-07-06T21:13:52.195Z,87.10
2017-07-06T21:16:19.653Z,86.40
2017-07-06T21:18:47.090Z,85.70
2017-07-06T21:21:14.527Z,84.90
2017-07-06T21:23:41.965Z,84.60
2017-07-06T21:26:09.408Z,85.60
2017-07-06T21:28:37.613Z,85.00
2017-07-06T21:31:05.066Z,85.00
2017-07-06T21:33:32.496Z,85.00
2017-07-06T21:35:59.936Z,84.50
2017-07-06T21:38:27.369Z,84.30
2017-07-06T21:40:55.596Z,84.20
2017-07-06T21:43:23.056Z,84.20
2017-07-06T21:45:50.489Z,84.50
2017-07-06T21:48:18.687Z,84.70
2017-07-06T21:50:46.116Z,84.60
2017-07-06T21:53:14.320Z,85.30
2017-07-06T21:55:41.748Z,84.40
2017-07-06T21:58:09.952Z,84.90
2017-07-06T22:00:37.385Z,85.50
2017-07-06T22:03:04.882Z,85.60
2017-07-06T22:05:37.980Z,85.70
2017-07-06T22:08:05.422Z,85.90
2017-07-06T22:10:32.849Z,86.30
2017-07-06T22:13:01.061Z,86.10
2017-07-06T22:15:28.490Z,86.00
2017-07-06T22:17:55.932Z,86.10
2017-07-06T22:20:24.149Z,86.30
2017-07-06T22:22:51.588Z,86.30
2017-07-06T22:25:19.029Z,86.60
2017-07-06T22:27:47.435Z,86.60
2017-07-06T22:30:14.871Z,86.60
2017-07-06T22:32:42.296Z,86.50
2017-07-06T22:35:09.735Z,86.60
2017-07-06T22:37:37.173Z,86.60
2017-07-06T22:40:04.618Z,86.90
2017-07-06T22:42:32.050Z,87.10
2017-07-06T22:44:59.485Z,86.70
2017-07-06T22:47:27.685Z,87.80
2017-07-06T22:49:55.116Z,87.40
2017-07-06T22:52:23.313Z,86.60
2017-07-06T22:54:50.752Z,86.50
2017-07-06T22:57:18.187Z,86.40
2017-07-06T22:59:45.634Z,86.50
2017-07-06T23:02:13.056Z,86.20
2017-07-06T23:04:40.492Z,85.60
2017-07-06T23:07:07.921Z,85.90
2017-07-06T23:09:35.384Z,86.10
2017-07-06T23:12:02.824Z,86.10
2017-07-06T23:14:30.252Z,86.40
2017-07-06T23:16:57.693Z,86.40
2017-07-06T23:19:25.125Z,86.60
2017-07-06T23:21:53.330Z,87.20
2017-07-06T23:24:20.758Z,87.20
2017-07-06T23:26:48.960Z,89.40
2017-07-06T23:29:16.394Z,89.40
2017-07-06T23:31:44.601Z,89.10
2017-07-06T23:34:12.041Z,89.10
2017-07-06T23:36:39.480Z,87.50
2017-07-06T23:39:07.671Z,88.20
2017-07-06T23:41:35.105Z,88.10
2017-07-06T23:44:03.304Z,89.50
2017-07-06T23:46:30.740Z,89.60
2017-07-06T23:48:58.928Z,89.80
2017-07-06T23:51:26.361Z,89.80
2017-07-06T23:53:54.560Z,89.70
2017-07-06T23:56:21.988Z,89.70
2017-07-06T23:58:50.192Z,89.90
